.
WxDataArchive / Data Records for 2007-12-31
2007-12-30 December 2007 2008-01-01

Data Records for Monday, 31 December 2007

Time	Temp	Chill	HIndex	Humid	Dewpt	 Wind 	HiWind	WindDir	Rain 	Barom 
-----	----	-----	------	-----	-----	------	------	-------	-----	----- 
00:00	28.8	28.8	28.8	92	26.8	0	0	---	0.00	29.855 
00:05	28.8	28.8	28.8	92	26.8	0	0	---	0.00	29.856 
00:10	29.0	29.0	29.0	92	27.0	0	1	112	0.00	29.853 
00:15	29.0	29.0	29.0	92	27.0	0	0	---	0.00	29.851 
00:20	29.0	29.0	29.0	92	27.0	0	0	---	0.00	29.851 
00:25	28.8	28.8	28.8	92	26.8	0	0	---	0.00	29.854 
00:30	28.8	28.8	28.8	92	26.8	0	1	112	0.00	29.851 
00:35	29.0	29.0	29.0	92	27.0	0	1	112	0.00	29.847 
00:40	29.0	29.0	29.0	92	27.0	0	1	112	0.00	29.846 
00:45	29.1	29.1	29.1	92	27.1	0	1	112	0.00	29.845 
00:50	29.1	29.1	29.1	92	27.1	0	1	112	0.00	29.844 
00:55	29.1	29.1	29.1	92	27.1	0	1	112	0.00	29.844 
01:00	29.3	29.3	29.3	92	27.3	0	1	112	0.00	29.844 
01:05	29.4	29.4	29.4	92	27.4	0	1	112	0.00	29.844 
01:10	29.4	29.4	29.4	92	27.4	0	1	112	0.00	29.844 
01:15	29.4	29.4	29.4	92	27.4	0	2	112	0.00	29.845 
01:20	29.4	29.4	29.4	92	27.4	0	1	112	0.00	29.844 
01:25	29.4	29.4	29.4	92	27.4	0	0	---	0.00	29.846 
01:30	29.4	29.4	29.4	92	27.4	0	0	---	0.00	29.847 
01:35	29.4	29.4	29.4	92	27.4	0	0	---	0.00	29.847 
01:40	29.3	29.3	29.3	91	27.0	0	0	---	0.00	29.848 
01:45	29.1	29.1	29.1	91	26.8	0	0	---	0.00	29.849 
01:50	29.0	29.0	29.0	91	26.7	0	0	---	0.00	29.850 
01:55	28.7	28.7	28.7	91	26.4	0	0	---	0.00	29.849 
02:00	28.5	28.5	28.5	91	26.2	0	0	---	0.00	29.847 
02:05	28.2	28.2	28.2	91	25.9	0	0	---	0.00	29.846 
02:10	28.1	28.1	28.1	91	25.8	0	0	---	0.00	29.846 
02:15	27.8	27.8	27.8	91	25.5	0	0	---	0.00	29.848 
02:20	27.8	27.8	27.8	91	25.5	0	0	---	0.00	29.849 
02:25	27.6	27.6	27.6	92	25.6	0	0	---	0.00	29.849 
02:30	27.8	27.8	27.8	92	25.8	0	0	---	0.00	29.846 
02:35	27.9	27.9	27.9	92	25.9	0	0	---	0.00	29.846 
02:40	27.9	27.9	27.9	92	25.9	0	0	---	0.00	29.847 
02:45	27.8	27.8	27.8	92	25.8	0	0	---	0.00	29.849 
02:50	27.6	27.6	27.6	92	25.6	0	0	---	0.00	29.848 
02:55	27.5	27.5	27.5	92	25.5	0	0	---	0.00	29.848 
03:00	27.3	27.3	27.3	92	25.3	0	0	---	0.00	29.854 
03:05	27.2	27.2	27.2	92	25.2	0	0	---	0.00	29.853 
03:10	27.0	27.0	27.0	92	25.0	0	0	---	0.00	29.858 
03:15	26.7	26.7	26.7	92	24.7	0	0	---	0.00	29.857 
03:20	26.6	26.6	26.6	92	24.6	0	0	---	0.00	29.855 
03:25	26.4	26.4	26.4	92	24.4	0	0	---	0.00	29.855 
03:30	26.4	26.4	26.4	93	24.7	0	0	---	0.00	29.854 
03:35	26.3	26.3	26.3	93	24.6	0	0	---	0.00	29.856 
03:40	26.4	26.4	26.4	93	24.7	0	1	112	0.00	29.853 
03:45	26.6	26.6	26.6	93	24.9	0	1	112	0.00	29.849 
03:50	27.0	27.0	27.0	94	25.5	0	2	112	0.00	29.849 
03:55	27.3	27.3	27.3	94	25.8	0	1	112	0.00	29.847 
04:00	27.8	27.8	27.8	94	26.3	0	2	112	0.00	29.847 
04:05	27.8	27.8	27.8	94	26.3	0	1	112	0.00	29.846 
04:10	27.8	27.8	27.8	94	26.3	0	0	---	0.00	29.845 
04:15	27.6	27.6	27.6	94	26.1	0	0	---	0.00	29.845 
04:20	27.3	27.3	27.3	94	25.8	0	0	---	0.00	29.845 
04:25	27.2	27.2	27.2	94	25.7	0	0	---	0.00	29.846 
04:30	27.0	27.0	27.0	94	25.5	0	0	---	0.00	29.844 
04:35	27.0	27.0	27.0	94	25.5	0	0	---	0.00	29.841 
04:40	27.0	27.0	27.0	94	25.5	0	0	---	0.00	29.845 
04:45	27.0	27.0	27.0	94	25.5	0	0	---	0.00	29.845 
04:50	26.7	26.7	26.7	94	25.2	0	0	---	0.00	29.847 
04:55	26.6	26.6	26.6	94	25.1	0	0	---	0.00	29.847 
05:00	26.4	26.4	26.4	94	24.9	0	0	---	0.00	29.848 
05:05	26.1	26.1	26.1	93	24.4	0	0	---	0.00	29.849 
05:10	26.0	26.0	26.0	93	24.3	0	0	---	0.00	29.852 
05:15	25.7	25.7	25.7	93	24.0	0	0	---	0.00	29.849 
05:20	25.6	25.6	25.6	93	23.9	0	0	---	0.00	29.848 
05:25	25.4	25.4	25.4	93	23.7	0	0	---	0.00	29.850 
05:30	25.3	25.3	25.3	93	23.6	0	0	---	0.00	29.850 
05:35	25.0	25.0	25.0	93	23.3	0	0	---	0.00	29.852 
05:40	24.8	24.8	24.8	93	23.1	0	0	---	0.00	29.852 
05:45	24.7	24.7	24.7	93	23.0	0	0	---	0.00	29.854 
05:50	24.4	24.4	24.4	93	22.7	0	0	---	0.00	29.859 
05:55	24.4	24.4	24.4	93	22.7	0	0	---	0.00	29.860 
06:00	24.4	24.4	24.4	93	22.7	0	0	---	0.00	29.863 
06:05	24.4	24.4	24.4	93	22.7	0	0	---	0.00	29.862 
06:10	24.5	24.5	24.5	93	22.8	0	0	---	0.00	29.861 
06:15	24.7	24.7	24.7	94	23.2	0	0	---	0.00	29.860 
06:20	25.0	25.0	25.0	94	23.5	0	0	---	0.00	29.860 
06:25	25.3	25.3	25.3	94	23.8	0	0	---	0.00	29.862 
06:30	25.4	25.4	25.4	94	23.9	0	0	---	0.00	29.864 
06:35	25.7	25.7	25.7	94	24.2	0	0	---	0.00	29.862 
06:40	26.0	26.0	26.0	94	24.5	0	0	---	0.00	29.860 
06:45	26.1	26.1	26.1	94	24.6	0	0	---	0.00	29.858 
06:50	26.4	26.4	26.4	95	25.2	0	0	---	0.00	29.859 
06:55	26.6	26.6	26.6	95	25.4	0	0	---	0.00	29.862 
07:00	26.6	26.6	26.6	94	25.1	0	0	---	0.00	29.863 
07:05	26.7	26.7	26.7	94	25.2	0	0	---	0.00	29.863 
07:10	26.7	26.7	26.7	94	25.2	0	0	---	0.00	29.865 
07:15	26.6	26.6	26.6	94	25.1	0	0	---	0.00	29.865 
07:20	26.3	26.3	26.3	94	24.8	0	0	---	0.00	29.865 
07:25	26.0	26.0	26.0	94	24.5	0	0	---	0.00	29.865 
07:30	25.7	25.7	25.7	94	24.2	0	0	---	0.00	29.863 
07:35	25.4	25.4	25.4	94	23.9	0	0	---	0.00	29.863 
07:40	25.1	25.1	25.1	94	23.6	0	0	---	0.00	29.864 
07:45	24.8	24.8	24.8	94	23.3	0	0	---	0.00	29.861 
07:50	24.5	24.5	24.5	94	23.0	0	0	---	0.00	29.860 
07:55	24.2	24.2	24.2	94	22.7	0	0	---	0.00	29.860 
08:00	23.9	23.9	23.9	93	22.2	0	0	---	0.00	29.856 
08:05	23.8	23.8	23.8	93	22.1	0	0	---	0.00	29.854 
08:10	23.6	23.6	23.6	93	21.9	0	0	---	0.00	29.859 
08:15	23.5	23.5	23.5	93	21.8	0	0	---	0.00	29.864 
08:20	23.3	23.3	23.3	93	21.6	0	0	---	0.00	29.870 
08:25	23.3	23.3	23.3	93	21.6	0	0	---	0.00	29.875 
08:30	23.3	23.3	23.3	93	21.6	0	0	---	0.00	29.876 
08:35	23.3	23.3	23.3	93	21.6	0	0	---	0.00	29.881 
08:40	23.3	23.3	23.3	94	21.8	0	0	---	0.00	29.885 
08:45	23.5	23.5	23.5	94	22.0	0	0	---	0.00	29.885 
08:50	23.6	23.6	23.6	94	22.1	0	0	---	0.00	29.887 
08:55	24.1	24.1	24.1	94	22.6	0	0	---	0.00	29.893 
09:00	24.7	24.7	24.7	94	23.2	0	0	---	0.00	29.895 
09:05	25.1	25.1	25.1	94	23.6	0	0	---	0.00	29.896 
09:10	25.7	25.7	25.7	95	24.5	0	0	---	0.00	29.894 
09:15	26.1	26.1	26.1	95	24.9	0	0	---	0.00	29.892 
09:20	26.7	26.7	26.7	95	25.5	0	0	---	0.00	29.891 
09:25	27.2	27.2	27.2	95	26.0	0	0	---	0.00	29.895 
09:30	27.6	27.6	27.6	95	26.4	0	1	112	0.00	29.892 
09:35	28.1	28.1	28.1	95	26.9	0	0	---	0.00	29.893 
09:40	28.7	28.7	28.7	95	27.5	0	2	135	0.00	29.894 
09:45	29.3	29.3	29.3	96	28.3	0	3	248	0.00	29.892 
09:50	29.7	29.7	29.7	96	28.7	0	2	248	0.00	29.889 
09:55	30.1	30.1	30.1	96	29.1	0	3	248	0.00	29.890 
10:00	30.6	30.6	30.6	96	29.6	0	3	248	0.00	29.891 
10:05	30.9	30.9	30.9	96	29.9	0	2	248	0.00	29.895 
10:10	31.3	31.3	31.3	96	30.3	1	2	248	0.00	29.895 
10:15	31.5	31.5	31.5	96	30.5	2	7	248	0.00	29.893 
10:20	31.8	31.8	31.8	95	30.5	1	4	248	0.00	29.892 
10:25	31.9	31.9	31.9	95	30.6	1	4	248	0.00	29.894 
10:30	32.2	32.2	32.2	94	30.7	2	5	248	0.00	29.895 
10:35	32.5	32.5	32.5	93	30.7	1	4	248	0.00	29.894 
10:40	32.9	32.9	32.9	92	30.8	1	4	248	0.00	29.900 
10:45	33.2	33.2	33.2	90	30.6	1	3	248	0.00	29.904 
10:50	33.4	33.4	33.4	89	30.5	1	2	248	0.00	29.905 
10:55	33.7	33.7	33.7	87	30.3	1	3	248	0.00	29.904 
11:00	33.8	33.8	33.8	86	30.1	1	4	248	0.00	29.904 
11:05	34.1	34.1	34.1	84	29.8	2	5	248	0.00	29.906 
11:10	34.3	34.3	34.3	84	30.0	1	4	248	0.00	29.913 
11:15	34.4	34.4	34.4	82	29.5	1	5	248	0.00	29.908 
11:20	34.6	34.6	34.6	82	29.7	1	4	248	0.00	29.913 
11:25	34.6	34.6	34.6	81	29.4	1	4	248	0.00	29.908 
11:30	34.7	34.7	34.7	81	29.5	2	4	248	0.00	29.904 
11:35	34.6	34.6	34.6	81	29.4	2	5	248	0.00	29.904 
11:40	34.7	34.7	34.7	81	29.5	1	5	248	0.00	29.905 
11:45	34.9	34.9	34.9	81	29.7	1	3	248	0.00	29.903 
11:50	35.0	35.0	35.0	80	29.5	2	4	248	0.00	29.903 
11:55	35.3	35.3	35.3	80	29.8	1	3	248	0.00	29.903 
12:00	35.6	35.6	35.6	80	30.1	0	2	248	0.00	29.901 
12:05	35.8	35.8	35.8	79	29.9	0	3	248	0.00	29.902 
12:10	35.9	35.9	35.9	79	30.0	0	3	248	0.00	29.900 
12:15	36.0	36.0	36.0	79	30.1	0	2	248	0.00	29.891 
12:20	36.0	36.0	36.0	78	29.8	0	2	248	0.00	29.887 
12:25	36.2	36.2	36.2	78	30.0	0	4	248	0.00	29.887 
12:30	36.2	36.2	36.2	77	29.7	1	2	248	0.00	29.886 
12:35	36.2	36.2	36.2	77	29.7	1	5	248	0.00	29.889 
12:40	36.0	36.0	36.0	76	29.2	2	4	248	0.00	29.891 
12:45	36.0	36.0	36.0	76	29.2	1	4	248	0.00	29.890 
12:50	36.0	36.0	36.0	77	29.5	0	2	248	0.00	29.888 
12:55	36.5	36.5	36.5	78	30.3	0	2	248	0.00	29.886 
13:00	36.6	36.6	36.6	77	30.1	1	3	248	0.00	29.884 
13:05	36.6	36.6	36.6	75	29.4	0	2	248	0.00	29.879 
13:10	36.5	36.5	36.5	76	29.7	1	3	112	0.00	29.879 
13:15	36.6	36.6	36.6	77	30.1	0	1	112	0.00	29.882 
13:20	36.6	36.6	36.6	76	29.8	0	2	112	0.00	29.875 
13:25	36.8	36.8	36.8	77	30.3	0	2	112	0.00	29.872 
13:30	36.9	36.9	36.9	76	30.1	1	2	112	0.00	29.873 
13:35	36.9	36.9	36.9	76	30.1	1	2	112	0.00	29.879 
13:40	37.0	37.0	37.0	76	30.2	0	2	112	0.00	29.878 
13:45	37.3	37.3	37.3	76	30.4	1	4	315	0.00	29.881 
13:50	37.6	37.6	37.6	74	30.1	1	2	112	0.00	29.878 
13:55	37.8	37.8	37.8	73	29.9	1	4	90	0.00	29.873 
14:00	38.2	38.2	38.2	74	30.7	1	4	248	0.00	29.869 
14:05	38.6	38.6	38.6	72	30.4	1	3	248	0.00	29.865 
14:10	38.8	38.8	38.8	71	30.2	0	2	225	0.00	29.861 
14:15	38.9	38.9	38.9	70	30.0	0	3	248	0.00	29.853 
14:20	38.9	38.9	38.9	70	30.0	1	3	112	0.00	29.853 
14:25	39.1	39.1	39.1	68	29.4	1	4	112	0.00	29.853 
14:30	39.1	39.1	39.1	68	29.4	1	5	90	0.00	29.852 
14:35	39.1	39.1	39.1	69	29.8	1	3	112	0.00	29.853 
14:40	38.8	38.8	38.8	70	29.9	1	3	90	0.00	29.847 
14:45	38.6	38.6	38.6	70	29.7	1	4	112	0.00	29.838 
14:50	38.5	38.5	38.5	69	29.2	2	4	112	0.00	29.838 
14:55	38.5	38.5	38.5	69	29.2	1	3	135	0.00	29.837 
15:00	38.5	38.5	38.5	69	29.2	0	2	135	0.00	29.838 
15:05	38.5	38.5	38.5	69	29.2	1	3	315	0.00	29.837 
15:10	38.5	38.5	38.5	69	29.2	1	3	270	0.00	29.837 
15:15	38.5	38.5	38.5	70	29.6	0	1	270	0.00	29.836 
15:20	38.5	38.5	38.5	70	29.6	0	1	270	0.00	29.836 
15:25	38.5	38.5	38.5	71	29.9	0	1	270	0.00	29.839 
15:30	38.5	38.5	38.5	70	29.6	1	3	270	0.00	29.843 
15:35	38.5	38.5	38.5	70	29.6	0	2	112	0.00	29.839 
15:40	38.5	38.5	38.5	70	29.6	0	3	112	0.00	29.840 
15:45	38.6	38.6	38.6	70	29.7	0	1	112	0.00	29.841 
15:50	38.6	38.6	38.6	71	30.0	0	2	112	0.00	29.839 
15:55	38.8	38.8	38.8	70	29.9	0	1	112	0.00	29.839 
16:00	38.8	38.8	38.8	70	29.9	0	2	112	0.00	29.838 
16:05	38.8	38.8	38.8	71	30.2	0	2	112	0.00	29.840 
16:10	38.8	38.8	38.8	71	30.2	0	2	112	0.00	29.838 
16:15	38.8	38.8	38.8	72	30.6	0	1	112	0.00	29.838 
16:20	38.8	38.8	38.8	71	30.2	1	3	90	0.00	29.832 
16:25	38.8	38.8	38.8	72	30.6	1	3	90	0.00	29.826 
16:30	38.6	38.6	38.6	72	30.4	0	3	90	0.00	29.823 
16:35	38.3	38.3	38.3	72	30.1	1	3	90	0.00	29.819 
16:40	38.0	38.0	38.0	74	30.5	1	3	90	0.00	29.807 
16:45	37.6	37.6	37.6	75	30.4	2	4	90	0.00	29.801 
16:50	37.5	37.5	37.5	76	30.6	2	4	90	0.00	29.793 
16:55	37.2	37.2	37.2	76	30.3	2	3	90	0.00	29.793 
17:00	37.0	37.0	37.0	76	30.2	2	4	90	0.00	29.781 
17:05	36.9	36.9	36.9	76	30.1	3	5	90	0.00	29.781 
17:10	36.8	36.8	36.8	76	30.0	1	3	90	0.00	29.786 
17:15	36.6	36.6	36.6	76	29.8	1	3	90	0.00	29.780 
17:20	36.6	36.6	36.6	76	29.8	2	3	90	0.00	29.778 
17:25	36.5	36.5	36.5	77	30.0	1	4	90	0.00	29.781 
17:30	36.3	36.3	36.3	77	29.8	2	4	68	0.00	29.780 
17:35	36.2	36.2	36.2	78	30.0	1	4	90	0.00	29.777 
17:40	36.0	36.0	36.0	78	29.8	1	3	90	0.00	29.779 
17:45	36.0	36.0	36.0	79	30.1	2	5	90	0.00	29.776 
17:50	35.9	35.9	35.9	79	30.0	1	3	90	0.00	29.771 
17:55	35.9	35.9	35.9	80	30.3	0	4	90	0.00	29.779 
18:00	35.8	35.8	35.8	80	30.2	1	2	90	0.00	29.778 
18:05	35.6	35.6	35.6	81	30.4	0	2	90	0.00	29.777 
18:10	35.6	35.6	35.6	81	30.4	1	2	90	0.00	29.777 
18:15	35.5	35.5	35.5	82	30.6	2	5	90	0.00	29.770 
18:20	35.3	35.3	35.3	83	30.7	1	4	90	0.00	29.775 
18:25	35.2	35.2	35.2	83	30.6	0	2	90	0.00	29.778 
18:30	35.0	35.0	35.0	84	30.7	0	0	---	0.00	29.788 
18:35	35.0	35.0	35.0	84	30.7	0	1	90	0.00	29.790 
18:40	35.0	35.0	35.0	84	30.7	0	1	90	0.00	29.789 
18:45	34.9	34.9	34.9	85	30.9	0	0	---	0.00	29.791 
18:50	34.9	34.9	34.9	85	30.9	0	1	90	0.00	29.794 
18:55	35.0	35.0	35.0	85	31.0	1	2	90	0.00	29.785 
19:00	35.0	35.0	35.0	85	31.0	0	2	90	0.00	29.780 
19:05	35.2	35.2	35.2	86	31.4	0	2	90	0.00	29.784 
19:10	35.2	35.2	35.2	86	31.4	1	4	90	0.00	29.782 
19:15	35.3	35.3	35.3	86	31.5	3	5	90	0.00	29.780 
19:20	35.5	35.5	35.5	86	31.7	2	4	90	0.00	29.773 
19:25	35.3	35.3	35.3	86	31.5	2	4	90	0.00	29.772 
19:30	35.2	35.2	35.2	87	31.7	2	5	90	0.00	29.768 
19:35	35.5	35.5	35.5	87	32.0	3	9	90	0.00	29.768 
19:40	35.8	35.8	35.8	87	32.3	2	5	112	0.00	29.766 
19:45	36.0	36.0	36.0	87	32.5	2	6	112	0.01	29.765 
19:50	36.2	36.2	36.2	87	32.7	2	7	112	0.01	29.764 
19:55	36.0	36.0	36.0	87	32.5	3	7	112	0.00	29.762 
20:00	36.0	36.0	36.0	88	32.8	1	4	112	0.00	29.755 
20:05	35.9	35.9	35.9	88	32.7	2	6	90	0.01	29.748 
20:10	35.8	35.8	35.8	89	32.9	2	5	112	0.00	29.745 
20:15	35.6	35.6	35.6	90	33.0	2	7	112	0.00	29.738 
20:20	35.5	35.5	35.5	90	32.9	1	4	112	0.01	29.732 
20:25	35.3	35.3	35.3	90	32.7	1	4	112	0.00	29.728 
20:30	35.2	35.2	35.2	91	32.8	2	5	112	0.01	29.718 
20:35	35.0	35.0	35.0	91	32.6	3	4	90	0.00	29.715 
20:40	34.9	34.9	34.9	92	32.8	3	6	112	0.00	29.713 
20:45	34.9	34.9	34.9	92	32.8	3	5	90	0.00	29.707 
20:50	34.7	34.7	34.7	92	32.6	2	4	90	0.01	29.701 
20:55	34.7	34.7	34.7	92	32.6	3	7	90	0.00	29.697 
21:00	34.7	34.7	34.7	92	32.6	3	6	112	0.00	29.688 
21:05	34.6	34.6	34.6	92	32.5	3	7	112	0.01	29.679 
21:10	34.6	31.1	34.6	93	32.8	4	6	90	0.00	29.675 
21:15	34.4	34.4	34.4	93	32.6	3	7	112	0.01	29.672 
21:20	34.6	31.1	34.6	93	32.8	4	10	90	0.00	29.667 
21:25	34.6	34.6	34.6	93	32.8	3	6	112	0.01	29.662 
21:30	34.6	34.6	34.6	93	32.8	3	6	112	0.00	29.659 
21:35	34.6	34.6	34.6	93	32.8	3	7	90	0.01	29.657 
21:40	34.4	34.4	34.4	93	32.6	3	6	90	0.00	29.659 
21:45	34.3	34.3	34.3	93	32.5	2	5	90	0.01	29.655 
21:50	34.1	34.1	34.1	93	32.3	2	6	90	0.00	29.653 
21:55	34.1	34.1	34.1	93	32.3	0	3	112	0.01	29.659 
22:00	34.0	34.0	34.0	93	32.2	1	4	90	0.00	29.656 
22:05	33.5	33.5	33.5	93	31.7	1	3	90	0.00	29.650 
22:10	33.2	33.2	33.2	93	31.4	1	2	112	0.00	29.648 
22:15	33.1	33.1	33.1	93	31.3	2	4	112	0.00	29.633 
22:20	32.9	32.9	32.9	94	31.4	2	3	112	0.00	29.631 
22:25	32.9	32.9	32.9	94	31.4	2	3	90	0.00	29.623 
22:30	32.9	32.9	32.9	94	31.4	1	3	90	0.01	29.618 
22:35	32.9	32.9	32.9	95	31.6	1	4	112	0.00	29.617 
22:40	33.1	33.1	33.1	95	31.8	1	3	112	0.00	29.617 
22:45	33.1	33.1	33.1	95	31.8	0	1	112	0.00	29.615 
22:50	33.1	33.1	33.1	95	31.8	1	2	112	0.00	29.612 
22:55	33.2	33.2	33.2	95	31.9	0	3	112	0.01	29.614 
23:00	33.2	33.2	33.2	95	31.9	0	0	---	0.00	29.611 
23:05	33.2	33.2	33.2	95	31.9	0	0	---	0.00	29.605 
23:10	33.1	33.1	33.1	95	31.8	0	0	---	0.00	29.602 
23:15	33.1	33.1	33.1	95	31.8	1	3	112	0.01	29.592 
23:20	33.1	33.1	33.1	95	31.8	0	1	112	0.00	29.587 
23:25	33.1	33.1	33.1	95	31.8	1	3	112	0.00	29.582 
23:30	33.1	33.1	33.1	95	31.8	0	1	112	0.00	29.582 
23:35	33.2	33.2	33.2	95	31.9	0	2	112	0.01	29.583 
23:40	33.2	33.2	33.2	95	31.9	0	1	112	0.00	29.584 
23:45	33.4	33.4	33.4	95	32.1	0	2	112	0.00	29.583 
23:50	33.5	33.5	33.5	96	32.5	1	4	90	0.00	29.581 
23:55	34.0	34.0	34.0	96	33.0	1	9	68	0.00	29.580 

CoCoRaHS
IN-AL-39
A2 Web Hosting
Creative Commons License
GoDaddy
Look for:

loaded 2017-12-11 12:26:18 • last modified 2010-11-18 10:43:29
Privacy PolicyDisclaimer
• wx.awcolley.com is powered by PmWiki v.2002016 •
• all content (unless otherwise noted) © 2017 A W Colley